sensor_id;sensor_type;location;lat;lon;timestamp;pressure;altitude;pressure_sealevel;temperature;humidity
6853;BME280;3465;42.144;24.722;2023-04-21T00:00:51;146002.53;;;12.34;100.00
6853;BME280;3465;42.144;24.722;2023-04-21T00:03:18;145984.94;;;12.27;100.00
6853;BME280;3465;42.144;24.722;2023-04-21T00:05:48;145971.19;;;12.22;100.00
6853;BME280;3465;42.144;24.722;2023-04-21T00:08:14;145953.59;;;12.15;100.00
6853;BME280;3465;42.144;24.722;2023-04-21T00:10:40;145947.34;;;12.12;100.00
6853;BME280;3465;42.144;24.722;2023-04-21T00:13:05;145934.81;;;12.07;100.00
6853;BME280;3465;42.144;24.722;2023-04-21T00:15:31;145908.44;;;11.97;100.00
6853;BME280;3465;42.144;24.722;2023-04-21T00:17:56;145903.41;;;11.95;100.00
6853;BME280;3465;42.144;24.722;2023-04-21T00:20:23;145894.69;;;11.91;100.00
6853;BME280;3465;42.144;24.722;2023-04-21T00:22:51;145754.25;;;11.35;100.00
6853;BME280;3465;42.144;24.722;2023-04-21T00:25:17;145863.31;;;11.79;100.00
6853;BME280;3465;42.144;24.722;2023-04-21T00:27:42;145825.72;;;11.64;100.00
6853;BME280;3465;42.144;24.722;2023-04-21T00:30:08;145869.59;;;11.81;100.00
6853;BME280;3465;42.144;24.722;2023-04-21T00:32:34;145869.59;;;11.81;100.00
6853;BME280;3465;42.144;24.722;2023-04-21T00:34:59;145855.78;;;11.76;100.00
6853;BME280;3465;42.144;24.722;2023-04-21T00:37:25;145831.97;;;11.66;100.00
6853;BME280;3465;42.144;24.722;2023-04-21T00:39:50;145796.84;;;11.52;100.00
6853;BME280;3465;42.144;24.722;2023-04-21T00:42:16;145804.34;;;11.55;100.00
6853;BME280;3465;42.144;24.722;2023-04-21T00:44:41;145811.88;;;11.58;100.00
6853;BME280;3465;42.144;24.722;2023-04-21T00:47:07;145794.34;;;11.51;100.00
6853;BME280;3465;42.144;24.722;2023-04-21T00:49:32;145784.31;;;11.47;100.00
6853;BME280;3465;42.144;24.722;2023-04-21T00:51:58;145791.81;;;11.50;100.00
6853;BME280;3465;42.144;24.722;2023-04-21T00:54:24;145760.50;;;11.37;100.00
6853;BME280;3465;42.144;24.722;2023-04-21T00:56:50;145778.06;;;11.44;100.00
6853;BME280;3465;42.144;24.722;2023-04-21T00:59:15;145769.28;;;11.41;100.00
6853;BME280;3465;42.144;24.722;2023-04-21T01:01:41;145746.72;;;11.32;100.00
6853;BME280;3465;42.144;24.722;2023-04-21T01:04:06;145744.19;;;11.31;100.00
6853;BME280;3465;42.144;24.722;2023-04-21T01:06:34;145731.66;;;11.26;100.00
6853;BME280;3465;42.144;24.722;2023-04-21T01:09:00;145711.63;;;11.18;100.00
6853;BME280;3465;42.144;24.722;2023-04-21T01:11:26;145685.31;;;11.07;100.00
6853;BME280;3465;42.144;24.722;2023-04-21T01:13:52;145681.56;;;11.06;100.00
6853;BME280;3465;42.144;24.722;2023-04-21T01:16:20;145669.03;;;11.01;100.00
6853;BME280;3465;42.144;24.722;2023-04-21T01:18:47;145641.47;;;10.90;100.00
6853;BME280;3465;42.144;24.722;2023-04-21T01:21:13;145642.69;;;10.90;100.00
6853;BME280;3465;42.144;24.722;2023-04-21T01:23:41;145616.41;;;10.80;100.00
6853;BME280;3465;42.144;24.722;2023-04-21T01:26:07;145635.19;;;10.87;100.00
6853;BME280;3465;42.144;24.722;2023-04-21T01:28:33;145640.22;;;10.89;100.00
6853;BME280;3465;42.144;24.722;2023-04-21T01:30:59;145638.94;;;10.89;100.00
6853;BME280;3465;42.144;24.722;2023-04-21T01:33:25;145591.34;;;10.70;100.00
6853;BME280;3465;42.144;24.722;2023-04-21T01:35:50;145618.91;;;10.81;100.00
6853;BME280;3465;42.144;24.722;2023-04-21T01:38:16;145573.84;;;10.63;100.00
6853;BME280;3465;42.144;24.722;2023-04-21T01:40:47;145561.31;;;10.58;100.00
6853;BME280;3465;42.144;24.722;2023-04-21T01:43:22;145464.91;;;10.19;100.00
6853;BME280;3465;42.144;24.722;2023-04-21T01:45:48;145562.53;;;10.58;100.00
6853;BME280;3465;42.144;24.722;2023-04-21T01:48:13;145562.53;;;10.58;100.00
6853;BME280;3465;42.144;24.722;2023-04-21T01:50:39;145552.53;;;10.54;100.00
6853;BME280;3465;42.144;24.722;2023-04-21T01:53:04;145548.78;;;10.53;100.00
6853;BME280;3465;42.144;24.722;2023-04-21T01:55:31;145525.00;;;10.43;100.00
6853;BME280;3465;42.144;24.722;2023-04-21T01:57:57;145517.50;;;10.40;100.00
6853;BME280;3465;42.144;24.722;2023-04-21T02:00:24;145472.41;;;10.22;100.00
6853;BME280;3465;42.144;24.722;2023-04-21T02:02:49;145471.16;;;10.22;100.00
6853;BME280;3465;42.144;24.722;2023-04-21T02:05:15;145458.63;;;10.17;100.00
6853;BME280;3465;42.144;24.722;2023-04-21T02:07:40;145431.03;;;10.05;100.00
6853;BME280;3465;42.144;24.722;2023-04-21T02:10:06;145447.38;;;10.12;100.00
6853;BME280;3465;42.144;24.722;2023-04-21T02:12:31;145407.25;;;9.96;100.00
6853;BME280;3465;42.144;24.722;2023-04-21T02:14:57;145406.03;;;9.95;100.00
6853;BME280;3465;42.144;24.722;2023-04-21T02:17:22;145358.44;;;9.76;100.00
6853;BME280;3465;42.144;24.722;2023-04-21T02:19:48;145398.50;;;9.92;100.00
6853;BME280;3465;42.144;24.722;2023-04-21T02:22:13;145389.78;;;9.89;100.00
6853;BME280;3465;42.144;24.722;2023-04-21T02:24:39;145394.75;;;9.91;100.00
6853;BME280;3465;42.144;24.722;2023-04-21T02:27:05;145398.50;;;9.92;100.00
6853;BME280;3465;42.144;24.722;2023-04-21T02:29:30;145370.97;;;9.81;100.00
6853;BME280;3465;42.144;24.722;2023-04-21T02:31:56;145386.00;;;9.87;100.00
6853;BME280;3465;42.144;24.722;2023-04-21T02:34:21;145368.47;;;9.80;100.00
6853;BME280;3465;42.144;24.722;2023-04-21T02:36:47;145386.00;;;9.87;100.00
6853;BME280;3465;42.144;24.722;2023-04-21T02:39:12;145368.47;;;9.80;100.00
6853;BME280;3465;42.144;24.722;2023-04-21T02:41:38;145381.00;;;9.85;100.00
6853;BME280;3465;42.144;24.722;2023-04-21T02:44:04;145384.75;;;9.87;100.00
6853;BME280;3465;42.144;24.722;2023-04-21T02:46:29;145368.47;;;9.80;100.00
6853;BME280;3465;42.144;24.722;2023-04-21T02:48:55;145360.97;;;9.77;100.00
6853;BME280;3465;42.144;24.722;2023-04-21T02:51:20;145348.47;;;9.72;100.00
6853;BME280;3465;42.144;24.722;2023-04-21T02:53:47;145378.47;;;9.84;100.00
6853;BME280;3465;42.144;24.722;2023-04-21T02:56:12;145368.47;;;9.80;100.00
6853;BME280;3465;42.144;24.722;2023-04-21T02:58:38;145378.47;;;9.84;100.00
6853;BME280;3465;42.144;24.722;2023-04-21T03:01:04;145375.97;;;9.83;100.00
6853;BME280;3465;42.144;24.722;2023-04-21T03:03:30;145370.97;;;9.81;100.00
6853;BME280;3465;42.144;24.722;2023-04-21T03:06:00;145353.47;;;9.74;100.00
6853;BME280;3465;42.144;24.722;2023-04-21T03:08:26;145340.97;;;9.69;100.00
6853;BME280;3465;42.144;24.722;2023-04-21T03:10:52;145333.47;;;9.66;100.00
6853;BME280;3465;42.144;24.722;2023-04-21T03:13:17;145333.47;;;9.66;100.00
6853;BME280;3465;42.144;24.722;2023-04-21T03:15:45;145267.13;;;9.40;100.00
6853;BME280;3465;42.144;24.722;2023-04-21T03:18:11;145273.41;;;9.42;100.00
6853;BME280;3465;42.144;24.722;2023-04-21T03:20:37;145253.38;;;9.34;100.00
6853;BME280;3465;42.144;24.722;2023-04-21T03:23:02;145235.84;;;9.27;100.00
6853;BME280;3465;42.144;24.722;2023-04-21T03:25:28;145219.59;;;9.21;100.00
6853;BME280;3465;42.144;24.722;2023-04-21T03:27:53;145280.91;;;9.45;100.00
6853;BME280;3465;42.144;24.722;2023-04-21T03:30:19;145277.16;;;9.44;100.00
6853;BME280;3465;42.144;24.722;2023-04-21T03:32:45;145270.88;;;9.41;100.00
6853;BME280;3465;42.144;24.722;2023-04-21T03:35:10;145269.66;;;9.41;100.00
6853;BME280;3465;42.144;24.722;2023-04-21T03:37:36;145235.84;;;9.27;100.00
6853;BME280;3465;42.144;24.722;2023-04-21T03:40:01;145270.88;;;9.41;100.00
6853;BME280;3465;42.144;24.722;2023-04-21T03:42:27;145274.63;;;9.43;100.00
6853;BME280;3465;42.144;24.722;2023-04-21T03:44:54;145278.38;;;9.44;100.00
6853;BME280;3465;42.144;24.722;2023-04-21T03:47:19;145293.41;;;9.50;100.00
6853;BME280;3465;42.144;24.722;2023-04-21T03:49:45;145289.66;;;9.49;100.00
6853;BME280;3465;42.144;24.722;2023-04-21T03:52:10;145282.13;;;9.46;100.00
6853;BME280;3465;42.144;24.722;2023-04-21T03:54:36;145275.88;;;9.43;100.00
6853;BME280;3465;42.144;24.722;2023-04-21T03:57:01;145273.41;;;9.42;100.00
6853;BME280;3465;42.144;24.722;2023-04-21T03:59:27;145297.16;;;9.52;100.00
6853;BME280;3465;42.144;24.722;2023-04-21T04:01:52;145277.16;;;9.44;100.00
6853;BME280;3465;42.144;24.722;2023-04-21T04:04:18;145278.38;;;9.44;100.00
6853;BME280;3465;42.144;24.722;2023-04-21T04:06:43;145300.91;;;9.53;100.00
6853;BME280;3465;42.144;24.722;2023-04-21T04:09:09;145313.44;;;9.58;100.00
6853;BME280;3465;42.144;24.722;2023-04-21T04:11:34;145308.41;;;9.56;100.00
6853;BME280;3465;42.144;24.722;2023-04-21T04:14:00;145284.66;;;9.47;100.00
6853;BME280;3465;42.144;24.722;2023-04-21T04:16:25;145322.16;;;9.62;100.00
6853;BME280;3465;42.144;24.722;2023-04-21T04:18:53;145323.41;;;9.62;100.00
6853;BME280;3465;42.144;24.722;2023-04-21T04:21:18;145315.91;;;9.59;100.00
6853;BME280;3465;42.144;24.722;2023-04-21T04:23:44;145345.97;;;9.71;100.00
6853;BME280;3465;42.144;24.722;2023-04-21T04:26:09;145373.50;;;9.82;100.00
6853;BME280;3465;42.144;24.722;2023-04-21T04:28:35;145382.22;;;9.86;100.00
6853;BME280;3465;42.144;24.722;2023-04-21T04:31:01;145386.00;;;9.87;100.00
6853;BME280;3465;42.144;24.722;2023-04-21T04:33:27;145419.78;;;10.01;100.00
6853;BME280;3465;42.144;24.722;2023-04-21T04:35:52;145472.41;;;10.22;100.00
6853;BME280;3465;42.144;24.722;2023-04-21T04:38:18;145489.97;;;10.29;100.00
6853;BME280;3465;42.144;24.722;2023-04-21T04:40:44;145493.72;;;10.31;100.00
6853;BME280;3465;42.144;24.722;2023-04-21T04:43:09;145557.56;;;10.56;100.00
6853;BME280;3465;42.144;24.722;2023-04-21T04:45:35;145626.47;;;10.84;100.00
6853;BME280;3465;42.144;24.722;2023-04-21T04:48:02;145686.59;;;11.08;100.00
6853;BME280;3465;42.144;24.722;2023-04-21T04:50:28;145714.16;;;11.19;100.00
6853;BME280;3465;42.144;24.722;2023-04-21T04:52:53;145758.00;;;11.36;100.00
6853;BME280;3465;42.144;24.722;2023-04-21T04:55:21;145740.44;;;11.29;100.00
6853;BME280;3465;42.144;24.722;2023-04-21T04:57:47;145756.75;;;11.36;100.00
6853;BME280;3465;42.144;24.722;2023-04-21T05:00:12;145794.34;;;11.51;100.00
6853;BME280;3465;42.144;24.722;2023-04-21T05:02:39;145834.50;;;11.67;100.00
6853;BME280;3465;42.144;24.722;2023-04-21T05:05:05;145843.25;;;11.71;100.00
6853;BME280;3465;42.144;24.722;2023-04-21T05:07:32;145849.53;;;11.73;100.00
6853;BME280;3465;42.144;24.722;2023-04-21T05:09:58;145850.81;;;11.74;100.00
6853;BME280;3465;42.144;24.722;2023-04-21T05:12:23;145888.38;;;11.89;100.00
6853;BME280;3465;42.144;24.722;2023-04-21T05:14:48;145902.19;;;11.94;100.00
6853;BME280;3465;42.144;24.722;2023-04-21T05:17:14;145974.94;;;12.23;100.00
6853;BME280;3465;42.144;24.722;2023-04-21T05:19:40;146027.63;;;12.44;100.00
6853;BME280;3465;42.144;24.722;2023-04-21T05:22:05;146097.84;;;12.72;100.00
6853;BME280;3465;42.144;24.722;2023-04-21T05:24:33;146194.53;;;13.11;100.00
6853;BME280;3465;42.144;24.722;2023-04-21T05:26:59;146247.25;;;13.32;100.00
6853;BME280;3465;42.144;24.722;2023-04-21T05:29:25;146450.66;;;14.13;100.00
6853;BME280;3465;42.144;24.722;2023-04-21T05:31:51;146748.56;;;15.32;100.00
6853;BME280;3465;42.144;24.722;2023-04-21T05:34:16;146996.44;;;16.31;100.00
6853;BME280;3465;42.144;24.722;2023-04-21T05:36:42;147259.59;;;17.36;99.38
6853;BME280;3465;42.144;24.722;2023-04-21T05:39:08;147461.22;;;18.16;94.47
6853;BME280;3465;42.144;24.722;2023-04-21T05:41:33;147587.38;;;18.67;91.69
6853;BME280;3465;42.144;24.722;2023-04-21T05:43:59;147700.88;;;19.12;85.83
6853;BME280;3465;42.144;24.722;2023-04-21T05:46:24;147847.28;;;19.70;82.18
6853;BME280;3465;42.144;24.722;2023-04-21T05:48:49;147907.84;;;19.94;78.64
6853;BME280;3465;42.144;24.722;2023-04-21T05:51:15;148039.16;;;20.46;74.97
6853;BME280;3465;42.144;24.722;2023-04-21T05:53:44;148332.31;;;21.63;69.63
6853;BME280;3465;42.144;24.722;2023-04-21T05:56:10;148514.41;;;22.35;64.81
6853;BME280;3465;42.144;24.722;2023-04-21T05:58:36;148801.66;;;23.49;61.01
6853;BME280;3465;42.144;24.722;2023-04-21T06:01:01;148780.13;;;23.40;58.92
6853;BME280;3465;42.144;24.722;2023-04-21T06:03:29;148973.84;;;24.17;57.17
6853;BME280;3465;42.144;24.722;2023-04-21T06:05:55;149171.50;;;24.95;55.69
6853;BME280;3465;42.144;24.722;2023-04-21T06:08:21;149165.16;;;24.93;52.24
6853;BME280;3465;42.144;24.722;2023-04-21T06:10:47;149338.84;;;25.62;49.62
6853;BME280;3465;42.144;24.722;2023-04-21T06:13:12;149567.13;;;26.52;46.39
6853;BME280;3465;42.144;24.722;2023-04-21T06:15:38;149876.88;;;27.74;41.03
6853;BME280;3465;42.144;24.722;2023-04-21T06:18:03;149794.34;;;27.42;40.39
6853;BME280;3465;42.144;24.722;2023-04-21T06:20:29;149912.47;;;27.88;40.01
6853;BME280;3465;42.144;24.722;2023-04-21T06:22:54;150044.53;;;28.41;37.68
6853;BME280;3465;42.144;24.722;2023-04-21T06:25:20;150071.28;;;28.51;37.38
6853;BME280;3465;42.144;24.722;2023-04-21T06:27:45;150053.41;;;28.44;36.60
6853;BME280;3465;42.144;24.722;2023-04-21T06:30:12;150165.28;;;28.88;35.85
6853;BME280;3465;42.144;24.722;2023-04-21T06:32:38;150094.13;;;28.60;35.30
6853;BME280;3465;42.144;24.722;2023-04-21T06:35:03;150160.19;;;28.86;35.11
6853;BME280;3465;42.144;24.722;2023-04-21T06:37:29;149817.19;;;27.51;35.66
6853;BME280;3465;42.144;24.722;2023-04-21T06:39:54;149845.16;;;27.62;35.42
6853;BME280;3465;42.144;24.722;2023-04-21T06:42:20;149735.91;;;27.19;36.87
6853;BME280;3465;42.144;24.722;2023-04-21T06:44:45;149847.69;;;27.63;36.72
6853;BME280;3465;42.144;24.722;2023-04-21T06:47:10;149880.69;;;27.76;36.51
6853;BME280;3465;42.144;24.722;2023-04-21T06:49:36;149974.72;;;28.13;35.59
6853;BME280;3465;42.144;24.722;2023-04-21T06:52:05;150237.75;;;29.17;33.50
6853;BME280;3465;42.144;24.722;2023-04-21T06:54:30;150308.91;;;29.45;33.16
6853;BME280;3465;42.144;24.722;2023-04-21T06:56:56;150075.06;;;28.53;34.87
6853;BME280;3465;42.144;24.722;2023-04-21T06:59:21;149977.22;;;28.14;34.40
6853;BME280;3465;42.144;24.722;2023-04-21T07:01:47;150223.75;;;29.11;34.47
6853;BME280;3465;42.144;24.722;2023-04-21T07:04:17;150031.88;;;28.36;35.13
6853;BME280;3465;42.144;24.722;2023-04-21T07:06:42;150422.16;;;29.90;32.69
6853;BME280;3465;42.144;24.722;2023-04-21T07:09:08;150618.06;;;30.67;31.56
6853;BME280;3465;42.144;24.722;2023-04-21T07:11:33;150666.44;;;30.86;31.36
6853;BME280;3465;42.144;24.722;2023-04-21T07:13:59;151031.84;;;32.30;28.93
6853;BME280;3465;42.144;24.722;2023-04-21T07:16:26;150984.75;;;32.12;29.46
6853;BME280;3465;42.144;24.722;2023-04-21T07:18:52;150936.31;;;31.92;29.83
6853;BME280;3465;42.144;24.722;2023-04-21T07:21:17;150893.00;;;31.75;30.49
6853;BME280;3465;42.144;24.722;2023-04-21T07:23:43;151174.56;;;32.86;29.60
6853;BME280;3465;42.144;24.722;2023-04-21T07:26:11;151390.00;;;33.71;28.43
6853;BME280;3465;42.144;24.722;2023-04-21T07:28:37;151448.72;;;33.94;27.75
6853;BME280;3465;42.144;24.722;2023-04-21T07:31:05;151122.34;;;32.66;28.29
6853;BME280;3465;42.144;24.722;2023-04-21T07:33:30;151025.50;;;32.28;29.21
6853;BME280;3465;42.144;24.722;2023-04-21T07:35:55;151087.94;;;32.52;29.33
6853;BME280;3465;42.144;24.722;2023-04-21T07:38:21;150955.47;;;32.00;29.44
6853;BME280;3465;42.144;24.722;2023-04-21T07:40:46;150867.53;;;31.65;30.75
6853;BME280;3465;42.144;24.722;2023-04-21T07:43:12;151267.63;;;33.23;28.34
6853;BME280;3465;42.144;24.722;2023-04-21T07:45:37;151143.97;;;32.74;28.79
6853;BME280;3465;42.144;24.722;2023-04-21T07:48:02;151392.59;;;33.72;27.68
6853;BME280;3465;42.144;24.722;2023-04-21T07:50:30;151451.25;;;33.95;27.74
6853;BME280;3465;42.144;24.722;2023-04-21T07:52:55;151559.66;;;34.38;26.87
6853;BME280;3465;42.144;24.722;2023-04-21T07:55:21;151215.38;;;33.02;28.38
6853;BME280;3465;42.144;24.722;2023-04-21T07:57:46;151490.78;;;34.11;27.21
6853;BME280;3465;42.144;24.722;2023-04-21T08:00:12;151664.28;;;34.79;25.98
6853;BME280;3465;42.144;24.722;2023-04-21T08:02:38;151341.59;;;33.52;26.89
6853;BME280;3465;42.144;24.722;2023-04-21T08:05:03;151509.94;;;34.18;27.36
6853;BME280;3465;42.144;24.722;2023-04-21T08:07:29;151670.63;;;34.82;25.88
6853;BME280;3465;42.144;24.722;2023-04-21T08:09:55;151627.28;;;34.64;26.64
6853;BME280;3465;42.144;24.722;2023-04-21T08:12:20;151703.88;;;34.95;25.77
6853;BME280;3465;42.144;24.722;2023-04-21T08:14:46;151614.53;;;34.59;26.84
6853;BME280;3465;42.144;24.722;2023-04-21T08:17:11;151772.75;;;35.22;26.04
6853;BME280;3465;42.144;24.722;2023-04-21T08:19:36;151895.31;;;35.70;24.22
6853;BME280;3465;42.144;24.722;2023-04-21T08:22:02;151891.47;;;35.68;24.21
6853;BME280;3465;42.144;24.722;2023-04-21T08:24:27;151710.28;;;34.97;24.28
6853;BME280;3465;42.144;24.722;2023-04-21T08:26:53;151770.22;;;35.21;24.80
6853;BME280;3465;42.144;24.722;2023-04-21T08:29:18;151813.63;;;35.38;24.26
6853;BME280;3465;42.144;24.722;2023-04-21T08:31:43;151836.63;;;35.47;24.37
6853;BME280;3465;42.144;24.722;2023-04-21T08:34:09;152033.25;;;36.24;23.77
6853;BME280;3465;42.144;24.722;2023-04-21T08:36:34;152113.75;;;36.56;23.09
6853;BME280;3465;42.144;24.722;2023-04-21T08:39:00;152123.94;;;36.60;23.51
6853;BME280;3465;42.144;24.722;2023-04-21T08:41:26;152175.09;;;36.80;23.67
6853;BME280;3465;42.144;24.722;2023-04-21T08:43:51;152118.84;;;36.58;23.45
6853;BME280;3465;42.144;24.722;2023-04-21T08:46:18;152034.50;;;36.25;22.45
6853;BME280;3465;42.144;24.722;2023-04-21T08:48:45;151739.63;;;35.09;24.34
6853;BME280;3465;42.144;24.722;2023-04-21T08:51:17;152070.34;;;36.39;22.68
6853;BME280;3465;42.144;24.722;2023-04-21T08:53:45;151974.50;;;36.01;23.04
6853;BME280;3465;42.144;24.722;2023-04-21T08:56:10;152190.41;;;36.86;22.90
6853;BME280;3465;42.144;24.722;2023-04-21T08:58:35;152205.72;;;36.92;21.99
6853;BME280;3465;42.144;24.722;2023-04-21T09:01:01;151922.13;;;35.80;23.73
6853;BME280;3465;42.144;24.722;2023-04-21T09:03:27;152099.66;;;36.50;22.72
6853;BME280;3465;42.144;24.722;2023-04-21T09:05:57;152369.28;;;37.56;22.33
6853;BME280;3465;42.144;24.722;2023-04-21T09:08:23;152522.78;;;38.16;21.24
6853;BME280;3465;42.144;24.722;2023-04-21T09:10:53;152378.25;;;37.60;21.90
6853;BME280;3465;42.144;24.722;2023-04-21T09:13:28;152530.44;;;38.19;21.12
6853;BME280;3465;42.144;24.722;2023-04-21T09:15:54;152610.97;;;38.51;20.73
6853;BME280;3465;42.144;24.722;2023-04-21T09:18:22;152548.34;;;38.26;20.34
6853;BME280;3465;42.144;24.722;2023-04-21T09:20:49;152416.66;;;37.75;20.58
6853;BME280;3465;42.144;24.722;2023-04-21T09:23:15;152066.50;;;36.37;21.48
6853;BME280;3465;42.144;24.722;2023-04-21T09:25:43;151917.03;;;35.78;23.14
6853;BME280;3465;42.144;24.722;2023-04-21T09:28:11;152023.03;;;36.20;22.35
6853;BME280;3465;42.144;24.722;2023-04-21T09:30:37;152074.16;;;36.40;22.52
6853;BME280;3465;42.144;24.722;2023-04-21T09:33:03;152127.81;;;36.61;22.16
6853;BME280;3465;42.144;24.722;2023-04-21T09:35:36;151779.16;;;35.24;23.43
6853;BME280;3465;42.144;24.722;2023-04-21T09:38:03;151693.69;;;34.91;22.76
6853;BME280;3465;42.144;24.722;2023-04-21T09:40:33;151966.88;;;35.98;22.40
6853;BME280;3465;42.144;24.722;2023-04-21T09:42:59;151701.34;;;34.94;22.33
6853;BME280;3465;42.144;24.722;2023-04-21T09:45:26;151844.28;;;35.50;22.50
6853;BME280;3465;42.144;24.722;2023-04-21T09:47:54;151948.97;;;35.91;23.07
6853;BME280;3465;42.144;24.722;2023-04-21T09:50:21;152025.59;;;36.21;22.28
6853;BME280;3465;42.144;24.722;2023-04-21T09:52:51;152235.09;;;37.03;21.89
6853;BME280;3465;42.144;24.722;2023-04-21T09:55:18;152414.09;;;37.74;21.33
6853;BME280;3465;42.144;24.722;2023-04-21T09:57:46;152458.84;;;37.91;21.37
6853;BME280;3465;42.144;24.722;2023-04-21T10:00:13;152507.41;;;38.10;20.45
6853;BME280;3465;42.144;24.722;2023-04-21T10:02:49;152614.78;;;38.52;20.87
6853;BME280;3465;42.144;24.722;2023-04-21T10:05:15;152457.53;;;37.91;21.65
6853;BME280;3465;42.144;24.722;2023-04-21T10:07:41;152580.28;;;38.39;20.50
6853;BME280;3465;42.144;24.722;2023-04-21T10:10:28;152455.00;;;37.90;20.49
6853;BME280;3465;42.144;24.722;2023-04-21T10:12:58;152632.75;;;38.59;19.39
6853;BME280;3465;42.144;24.722;2023-04-21T10:15:40;152740.22;;;39.02;20.01
6853;BME280;3465;42.144;24.722;2023-04-21T10:21:10;152772.19;;;39.14;19.81
6853;BME280;3465;42.144;24.722;2023-04-21T10:23:47;152710.75;;;38.90;19.52
6853;BME280;3465;42.144;24.722;2023-04-21T10:26:51;152506.09;;;38.10;19.85
6853;BME280;3465;42.144;24.722;2023-04-21T10:29:10;152355.25;;;37.51;20.86
6853;BME280;3465;42.144;24.722;2023-04-21T10:31:52;152380.81;;;37.61;20.73
6853;BME280;3465;42.144;24.722;2023-04-21T10:34:20;152102.25;;;36.51;20.73
6853;BME280;3465;42.144;24.722;2023-04-21T10:39:42;152278.56;;;37.20;20.71
6853;BME280;3465;42.144;24.722;2023-04-21T10:47:26;152429.44;;;37.80;20.09
6853;BME280;3465;42.144;24.722;2023-04-21T10:49:57;152215.97;;;36.96;20.67
6853;BME280;3465;42.144;24.722;2023-04-21T10:52:32;151864.72;;;35.58;20.80
6853;BME280;3465;42.144;24.722;2023-04-21T10:57:23;150997.44;;;32.17;24.12
6853;BME280;3465;42.144;24.722;2023-04-21T10:59:48;150909.56;;;31.82;24.80
6853;BME280;3465;42.144;24.722;2023-04-21T11:02:15;150872.63;;;31.67;24.10
6853;BME280;3465;42.144;24.722;2023-04-21T11:04:41;150798.81;;;31.38;24.47
6853;BME280;3465;42.144;24.722;2023-04-21T11:07:30;150726.22;;;31.10;24.78
6853;BME280;3465;42.144;24.722;2023-04-21T11:12:40;150333.09;;;29.55;27.73
6853;BME280;3465;42.144;24.722;2023-04-21T11:15:08;150321.63;;;29.50;28.47
6853;BME280;3465;42.144;24.722;2023-04-21T11:17:35;150152.56;;;28.83;29.03
6853;BME280;3465;42.144;24.722;2023-04-21T11:20:03;150097.94;;;28.62;30.36
6853;BME280;3465;42.144;24.722;2023-04-21T11:22:28;150152.56;;;28.83;30.41
6853;BME280;3465;42.144;24.722;2023-04-21T11:24:55;150485.69;;;30.15;28.84
6853;BME280;3465;42.144;24.722;2023-04-21T11:27:22;150596.41;;;30.58;27.62
6853;BME280;3465;42.144;24.722;2023-04-21T11:29:50;150675.31;;;30.90;27.21
6853;BME280;3465;42.144;24.722;2023-04-21T11:32:16;150698.25;;;30.99;28.06
6853;BME280;3465;42.144;24.722;2023-04-21T11:34:42;150522.63;;;30.29;27.16
6853;BME280;3465;42.144;24.722;2023-04-21T11:37:28;150298.75;;;29.41;29.43
6853;BME280;3465;42.144;24.722;2023-04-21T11:39:58;150039.47;;;28.39;30.01
6853;BME280;3465;42.144;24.722;2023-04-21T11:42:23;150011.53;;;28.28;30.94
6853;BME280;3465;42.144;24.722;2023-04-21T11:44:49;149893.41;;;27.81;32.28
6853;BME280;3465;42.144;24.722;2023-04-21T11:54:45;149911.13;;;27.88;33.90
6853;BME280;3465;42.144;24.722;2023-04-21T11:57:11;150030.56;;;28.35;32.11
6853;BME280;3465;42.144;24.722;2023-04-21T11:59:37;150235.25;;;29.16;31.30
6853;BME280;3465;42.144;24.722;2023-04-21T12:02:02;150434.84;;;29.95;29.57
6853;BME280;3465;42.144;24.722;2023-04-21T12:04:28;150400.50;;;29.81;28.76
6853;BME280;3465;42.144;24.722;2023-04-21T12:06:58;150722.41;;;31.08;28.06
6853;BME280;3465;42.144;24.722;2023-04-21T12:09:24;150926.16;;;31.88;27.41
6853;BME280;3465;42.144;24.722;2023-04-21T12:11:52;150880.28;;;31.70;27.29
6853;BME280;3465;42.144;24.722;2023-04-21T12:14:20;150885.38;;;31.72;27.39
6853;BME280;3465;42.144;24.722;2023-04-21T12:16:53;151002.56;;;32.19;26.44
6853;BME280;3465;42.144;24.722;2023-04-21T12:19:41;150961.81;;;32.02;26.85
6853;BME280;3465;42.144;24.722;2023-04-21T12:24:36;151154.19;;;32.78;26.38
6853;BME280;3465;42.144;24.722;2023-04-21T12:27:02;151172.03;;;32.85;25.81
6853;BME280;3465;42.144;24.722;2023-04-21T12:29:28;151298.22;;;33.35;25.40
6853;BME280;3465;42.144;24.722;2023-04-21T12:31:53;150949.06;;;31.97;24.93
6853;BME280;3465;42.144;24.722;2023-04-21T12:34:19;150604.03;;;30.61;26.37
6853;BME280;3465;42.144;24.722;2023-04-21T12:36:44;150474.25;;;30.10;27.71
6853;BME280;3465;42.144;24.722;2023-04-21T12:39:09;150380.16;;;29.73;28.73
6853;BME280;3465;42.144;24.722;2023-04-21T12:41:41;150010.25;;;28.27;29.78
6853;BME280;3465;42.144;24.722;2023-04-21T12:44:06;149884.50;;;27.77;31.21
6853;BME280;3465;42.144;24.722;2023-04-21T12:46:32;149692.78;;;27.02;32.67
6853;BME280;3465;42.144;24.722;2023-04-21T12:48:59;149504.97;;;26.27;33.68
6853;BME280;3465;42.144;24.722;2023-04-21T12:51:24;149418.72;;;25.93;34.47
6853;BME280;3465;42.144;24.722;2023-04-21T12:53:50;149157.56;;;24.90;46.11
6853;BME280;3465;42.144;24.722;2023-04-21T12:56:16;148948.53;;;24.07;49.58
6853;BME280;3465;42.144;24.722;2023-04-21T12:58:41;148838.38;;;23.63;52.67
6853;BME280;3465;42.144;24.722;2023-04-21T13:01:07;148568.81;;;22.56;51.74
6853;BME280;3465;42.144;24.722;2023-04-21T13:03:32;148558.72;;;22.52;48.33
6853;BME280;3465;42.144;24.722;2023-04-21T13:05:58;148317.09;;;21.57;49.15
6853;BME280;3465;42.144;24.722;2023-04-21T13:08:24;148393.03;;;21.87;51.01
6853;BME280;3465;42.144;24.722;2023-04-21T13:10:49;148417.03;;;21.96;48.50
6853;BME280;3465;42.144;24.722;2023-04-21T13:13:14;148461.28;;;22.14;46.49
6853;BME280;3465;42.144;24.722;2023-04-21T13:15:40;148586.53;;;22.63;47.73
6853;BME280;3465;42.144;24.722;2023-04-21T13:18:05;148662.41;;;22.94;46.57
6853;BME280;3465;42.144;24.722;2023-04-21T13:20:31;148663.69;;;22.94;45.24